createdAt,value
2017-12-03T00:01:37.287Z,9.97
2017-12-03T00:04:05.558Z,10.70
2017-12-03T00:06:33.842Z,10.27
2017-12-03T00:09:02.131Z,11.20
2017-12-03T00:11:29.689Z,11.50
2017-12-03T00:13:57.238Z,10.70
2017-12-03T00:16:25.522Z,10.80
2017-12-03T00:18:53.022Z,12.20
2017-12-03T00:21:20.539Z,10.93
2017-12-03T00:23:48.048Z,11.80
2017-12-03T00:26:15.590Z,11.60
2017-12-03T00:28:43.098Z,11.33
2017-12-03T00:31:11.370Z,11.67
2017-12-03T00:33:39.655Z,11.20
2017-12-03T00:36:07.932Z,10.93
2017-12-03T00:38:35.455Z,12.73
2017-12-03T00:41:02.958Z,12.40
2017-12-03T00:43:30.518Z,11.93
2017-12-03T00:45:58.023Z,14.10
2017-12-03T00:48:25.540Z,12.37
2017-12-03T00:50:53.098Z,12.67
2017-12-03T00:53:20.623Z,11.80
2017-12-03T00:55:48.896Z,13.00
2017-12-03T00:58:17.188Z,11.70
2017-12-03T01:00:45.495Z,11.63
2017-12-03T01:03:13.019Z,12.53
2017-12-03T01:05:41.291Z,14.03
2017-12-03T01:08:09.567Z,13.50
2017-12-03T01:10:37.851Z,11.40
2017-12-03T01:13:06.126Z,12.53
2017-12-03T01:15:34.438Z,13.63
2017-12-03T01:18:01.930Z,12.93
2017-12-03T01:20:29.483Z,14.03
2017-12-03T01:22:56.983Z,13.03
2017-12-03T01:25:24.499Z,12.57
2017-12-03T01:27:52.003Z,13.53
2017-12-03T01:30:19.526Z,13.40
2017-12-03T01:32:47.124Z,14.97
2017-12-03T01:35:14.661Z,12.57
2017-12-03T01:37:42.930Z,12.63
2017-12-03T01:40:11.225Z,12.63
2017-12-03T01:42:39.492Z,13.30
2017-12-03T01:45:07.782Z,12.60
2017-12-03T01:47:35.305Z,11.53
2017-12-03T01:50:02.914Z,13.50
2017-12-03T01:52:30.467Z,11.77
2017-12-03T01:54:57.977Z,11.33
2017-12-03T01:57:25.504Z,11.57
2017-12-03T01:59:53.003Z,10.90
2017-12-03T02:02:20.531Z,13.53
2017-12-03T02:04:48.035Z,12.30
2017-12-03T02:07:16.319Z,11.17
2017-12-03T02:09:44.602Z,11.40
2017-12-03T02:12:12.124Z,10.93
2017-12-03T02:14:40.395Z,11.87
2017-12-03T02:17:07.938Z,11.53
2017-12-03T02:19:35.443Z,13.30
2017-12-03T02:22:03.714Z,12.80
2017-12-03T02:24:31.997Z,11.10
2017-12-03T02:27:00.266Z,11.73
2017-12-03T02:29:28.554Z,10.43
2017-12-03T02:31:56.118Z,11.60
2017-12-03T02:34:23.646Z,11.13
2017-12-03T02:36:51.152Z,11.27
2017-12-03T02:39:18.686Z,11.33
2017-12-03T02:41:46.959Z,11.40
2017-12-03T02:44:14.540Z,11.53
2017-12-03T02:46:42.043Z,11.50
2017-12-03T02:49:09.594Z,11.77
2017-12-03T02:51:37.095Z,11.60
2017-12-03T02:54:05.373Z,10.83
2017-12-03T02:56:32.898Z,11.93
2017-12-03T02:59:00.406Z,11.63
2017-12-03T03:01:27.958Z,12.37
2017-12-03T03:03:55.515Z,11.43
2017-12-03T03:06:23.034Z,11.43
2017-12-03T03:08:50.543Z,12.93
2017-12-03T03:11:18.091Z,12.70
2017-12-03T03:13:45.594Z,13.43
2017-12-03T03:16:13.122Z,12.57
2017-12-03T03:18:40.631Z,12.07
2017-12-03T03:21:08.467Z,13.20
2017-12-03T03:23:36.091Z,10.90
2017-12-03T03:26:03.590Z,13.80
2017-12-03T03:28:31.103Z,12.77
2017-12-03T03:30:58.607Z,13.03
2017-12-03T03:33:26.223Z,13.17
2017-12-03T03:38:27.687Z,14.70
2017-12-03T03:40:55.190Z,12.60
2017-12-03T03:43:22.707Z,16.07
2017-12-03T03:45:50.274Z,14.20
2017-12-03T03:48:17.799Z,15.43
2017-12-03T03:50:46.066Z,15.77
2017-12-03T03:53:13.659Z,13.20
2017-12-03T03:55:41.166Z,12.47
2017-12-03T03:58:08.690Z,14.40
2017-12-03T04:00:36.231Z,15.70
2017-12-03T04:03:03.735Z,15.23
2017-12-03T04:05:31.258Z,15.70
2017-12-03T04:07:58.771Z,14.60
2017-12-03T04:10:26.286Z,15.00
2017-12-03T04:12:53.823Z,15.63
2017-12-03T04:15:21.346Z,16.50
2017-12-03T04:17:48.869Z,17.97
2017-12-03T04:20:16.504Z,16.10
2017-12-03T04:22:44.011Z,15.10
2017-12-03T04:25:11.627Z,15.63
2017-12-03T04:27:39.130Z,16.10
2017-12-03T04:30:06.650Z,17.03
2017-12-03T04:32:34.156Z,16.40
2017-12-03T04:35:01.679Z,16.73
2017-12-03T04:37:29.192Z,16.40
2017-12-03T04:39:57.489Z,17.33
2017-12-03T04:42:24.993Z,18.60
2017-12-03T04:44:52.499Z,15.70
2017-12-03T04:47:20.018Z,15.50
2017-12-03T04:49:47.524Z,16.47
2017-12-03T04:52:15.101Z,17.20
2017-12-03T04:54:42.601Z,19.00
2017-12-03T04:57:10.119Z,17.77
2017-12-03T04:59:37.622Z,18.10
2017-12-03T05:02:05.907Z,17.93
2017-12-03T05:04:34.185Z,16.57
2017-12-03T05:07:02.474Z,17.43
2017-12-03T05:09:29.975Z,17.13
2017-12-03T05:11:57.498Z,17.90
2017-12-03T05:14:25.010Z,17.30
2017-12-03T05:16:52.531Z,17.83
2017-12-03T05:19:20.039Z,18.60
2017-12-03T05:21:48.343Z,16.27
2017-12-03T05:24:15.952Z,17.10
2017-12-03T05:26:43.443Z,16.53
2017-12-03T05:29:11.716Z,18.43
2017-12-03T05:31:40.021Z,17.20
2017-12-03T05:34:07.531Z,17.50
2017-12-03T05:36:35.130Z,19.33
2017-12-03T05:39:02.652Z,18.10
2017-12-03T05:41:30.246Z,17.23
2017-12-03T05:43:57.771Z,17.47
2017-12-03T05:46:25.370Z,17.73
2017-12-03T05:48:52.890Z,16.73
2017-12-03T05:51:20.386Z,17.90
2017-12-03T05:53:47.944Z,17.70
2017-12-03T05:56:15.503Z,15.30
2017-12-03T05:58:43.014Z,18.10
2017-12-03T06:01:10.525Z,17.17
2017-12-03T06:03:38.078Z,16.70
2017-12-03T06:06:05.587Z,18.60
2017-12-03T06:08:33.107Z,16.90
2017-12-03T06:11:00.655Z,16.50
2017-12-03T06:13:28.175Z,16.30
2017-12-03T06:15:55.676Z,15.43
2017-12-03T06:18:23.200Z,15.10
2017-12-03T06:20:51.466Z,14.60
2017-12-03T06:23:19.014Z,13.10
2017-12-03T06:25:46.518Z,12.73
2017-12-03T06:28:14.031Z,14.10
2017-12-03T06:30:41.555Z,14.77
2017-12-03T06:33:09.095Z,15.43
2017-12-03T06:35:36.651Z,14.60
2017-12-03T06:38:04.158Z,12.60
2017-12-03T06:40:31.670Z,14.07
2017-12-03T06:42:59.230Z,14.43
2017-12-03T06:45:26.791Z,15.50
2017-12-03T06:47:54.346Z,15.30
2017-12-03T06:50:21.864Z,14.37
2017-12-03T06:52:49.367Z,13.70
2017-12-03T06:55:16.886Z,12.57
2017-12-03T06:57:44.389Z,13.13
2017-12-03T07:00:11.964Z,15.57
2017-12-03T07:02:39.476Z,14.90
2017-12-03T07:05:07.874Z,15.47
2017-12-03T07:07:35.380Z,15.93
2017-12-03T07:10:02.991Z,17.33
2017-12-03T07:12:30.562Z,16.47
2017-12-03T07:14:58.093Z,14.30
2017-12-03T07:17:26.386Z,14.33
2017-12-03T07:19:53.890Z,15.50
2017-12-03T07:22:21.431Z,15.37
2017-12-03T07:24:48.930Z,17.70
2017-12-03T07:27:16.518Z,19.20
2017-12-03T07:29:44.031Z,19.53
2017-12-03T07:32:11.564Z,20.27
2017-12-03T07:34:39.072Z,19.17
2017-12-03T07:37:07.384Z,20.10
2017-12-03T07:39:34.886Z,19.00
2017-12-03T07:42:02.408Z,17.77
2017-12-03T07:44:29.915Z,18.40
2017-12-03T07:46:57.433Z,18.70
2017-12-03T07:49:24.935Z,20.07
2017-12-03T07:51:53.222Z,19.33
2017-12-03T07:54:21.498Z,20.17
2017-12-03T07:56:49.791Z,21.60
2017-12-03T07:59:17.294Z,19.60
2017-12-03T08:01:44.831Z,19.63
2017-12-03T08:04:12.373Z,19.10
2017-12-03T08:06:39.878Z,20.30
2017-12-03T08:09:07.394Z,18.83
2017-12-03T08:11:34.938Z,18.60
2017-12-03T08:14:02.459Z,19.10
2017-12-03T08:16:30.054Z,17.53
2017-12-03T08:18:57.580Z,19.90
2017-12-03T08:21:25.086Z,19.87
2017-12-03T08:23:52.665Z,18.80
2017-12-03T08:26:20.139Z,18.60
2017-12-03T08:28:47.658Z,19.00
2017-12-03T08:31:15.163Z,21.00
2017-12-03T08:33:42.687Z,21.90
2017-12-03T08:36:10.200Z,18.10
2017-12-03T08:38:38.487Z,20.00
2017-12-03T08:41:06.759Z,18.70
2017-12-03T08:43:35.046Z,20.00
2017-12-03T08:46:02.551Z,20.13
2017-12-03T08:48:30.077Z,17.37
2017-12-03T08:50:57.578Z,14.80
2017-12-03T08:53:25.105Z,15.47
2017-12-03T08:55:52.607Z,18.17
2017-12-03T08:58:20.126Z,18.60
2017-12-03T09:00:47.650Z,17.40
2017-12-03T09:03:15.155Z,16.30
2017-12-03T09:05:42.672Z,15.47
2017-12-03T09:08:10.180Z,16.30
2017-12-03T09:10:37.698Z,16.00
2017-12-03T09:13:05.203Z,15.90
2017-12-03T09:15:32.731Z,18.27
2017-12-03T09:18:00.244Z,17.80
2017-12-03T09:20:28.531Z,16.43
2017-12-03T09:22:56.040Z,18.47
2017-12-03T09:25:23.558Z,18.07
2017-12-03T09:27:51.068Z,18.47
2017-12-03T09:30:18.590Z,18.53
2017-12-03T09:32:46.097Z,17.53
2017-12-03T09:35:14.390Z,15.80
2017-12-03T09:37:42.663Z,18.07
2017-12-03T09:40:10.949Z,16.90
2017-12-03T09:42:39.214Z,16.93
2017-12-03T09:45:07.499Z,17.33
2017-12-03T09:47:35.013Z,17.83
2017-12-03T09:50:02.540Z,18.43
2017-12-03T09:52:30.084Z,18.97
2017-12-03T09:54:57.598Z,17.67
2017-12-03T09:57:25.129Z,19.50
2017-12-03T09:59:52.634Z,19.40
2017-12-03T10:02:20.925Z,18.90
2017-12-03T10:04:49.194Z,20.00
2017-12-03T10:07:17.487Z,18.37
2017-12-03T10:09:44.991Z,17.90
2017-12-03T10:12:12.519Z,18.70
2017-12-03T10:14:40.028Z,19.43
2017-12-03T10:17:07.554Z,23.47
2017-12-03T10:19:35.058Z,20.23
2017-12-03T10:22:03.346Z,23.10
2017-12-03T10:24:30.846Z,21.50
2017-12-03T10:26:58.366Z,20.53
2017-12-03T10:29:25.880Z,18.07
2017-12-03T10:31:53.402Z,19.27
2017-12-03T10:34:20.910Z,17.50
2017-12-03T10:36:48.427Z,16.60
2017-12-03T10:39:15.936Z,18.10
2017-12-03T10:41:44.227Z,16.30
2017-12-03T10:44:12.495Z,18.17
2017-12-03T10:46:40.790Z,17.30
2017-12-03T10:49:08.294Z,18.03
2017-12-03T10:51:35.811Z,18.30
2017-12-03T10:54:03.318Z,17.50
2017-12-03T10:56:30.866Z,18.43
2017-12-03T10:58:58.363Z,17.00
2017-12-03T11:01:26.635Z,18.87
2017-12-03T11:03:54.924Z,16.70
2017-12-03T11:06:22.438Z,17.97
2017-12-03T11:08:49.999Z,16.97
2017-12-03T11:11:17.510Z,16.47
2017-12-03T11:13:45.028Z,16.30
2017-12-03T11:16:13.308Z,16.17
2017-12-03T11:18:40.826Z,15.53
2017-12-03T11:21:08.599Z,16.80
2017-12-03T11:23:36.114Z,16.30
2017-12-03T11:26:03.618Z,16.30
2017-12-03T11:28:31.141Z,18.77
2017-12-03T11:30:58.643Z,17.03
2017-12-03T11:33:26.163Z,17.27
2017-12-03T11:35:53.667Z,17.93
2017-12-03T11:38:21.191Z,17.80
2017-12-03T11:40:48.699Z,16.27
2017-12-03T11:43:16.991Z,19.13
2017-12-03T11:45:45.258Z,17.70
2017-12-03T11:48:13.555Z,17.20
2017-12-03T11:50:41.066Z,17.77
2017-12-03T11:53:08.603Z,17.27
2017-12-03T11:55:36.351Z,17.97
2017-12-03T11:58:03.858Z,16.40
2017-12-03T12:00:31.374Z,17.57
2017-12-03T12:02:59.706Z,17.40
2017-12-03T12:05:27.994Z,16.10
2017-12-03T12:07:55.498Z,16.63
2017-12-03T12:10:23.789Z,15.27
2017-12-03T12:12:51.296Z,15.00
2017-12-03T12:15:18.823Z,15.30
2017-12-03T12:17:46.327Z,15.50
2017-12-03T12:20:13.851Z,16.07
2017-12-03T12:22:42.120Z,16.20
2017-12-03T12:25:10.411Z,16.47
2017-12-03T12:27:37.918Z,12.97
2017-12-03T12:30:05.448Z,14.13
2017-12-03T12:32:32.963Z,13.90
2017-12-03T12:35:00.486Z,15.67
2017-12-03T12:37:28.765Z,16.47
2017-12-03T12:39:56.287Z,16.40
2017-12-03T12:42:23.800Z,16.40
2017-12-03T12:44:51.322Z,14.83
2017-12-03T12:47:18.827Z,15.03
2017-12-03T12:49:46.348Z,16.10
2017-12-03T12:52:13.855Z,17.00
2017-12-03T12:54:42.146Z,18.33
2017-12-03T12:57:10.411Z,15.43
2017-12-03T12:59:38.683Z,17.43
2017-12-03T13:02:06.967Z,17.23
2017-12-03T13:04:35.235Z,16.53
2017-12-03T13:07:03.530Z,16.20
2017-12-03T13:09:31.034Z,15.20
2017-12-03T13:11:58.562Z,16.00
2017-12-03T13:14:26.071Z,14.20
2017-12-03T13:16:53.592Z,22.33
2017-12-03T13:19:21.094Z,18.23
2017-12-03T13:21:49.379Z,14.63
2017-12-03T13:24:17.643Z,14.00
2017-12-03T13:26:45.163Z,15.00
2017-12-03T13:29:12.666Z,23.90
2017-12-03T13:31:40.954Z,17.40
2017-12-03T13:34:09.231Z,13.97
2017-12-03T13:36:37.520Z,15.83
2017-12-03T13:39:05.026Z,18.60
2017-12-03T13:41:32.547Z,23.17
2017-12-03T13:44:00.057Z,13.73
2017-12-03T13:46:27.581Z,15.37
2017-12-03T13:48:55.093Z,14.10
2017-12-03T13:51:23.378Z,15.17
2017-12-03T13:53:50.892Z,14.67
2017-12-03T13:56:18.434Z,14.37
2017-12-03T13:58:45.946Z,14.30
2017-12-03T14:01:14.211Z,13.60
2017-12-03T14:03:42.499Z,12.90
2017-12-03T14:06:10.771Z,13.33
2017-12-03T14:08:39.060Z,14.70
2017-12-03T14:11:06.563Z,13.57
2017-12-03T14:13:34.855Z,12.47
2017-12-03T14:16:02.359Z,12.33
2017-12-03T14:18:29.880Z,13.13
2017-12-03T14:20:57.386Z,13.23
2017-12-03T14:23:24.906Z,15.97
2017-12-03T14:25:53.175Z,12.80
2017-12-03T14:28:21.463Z,13.00
2017-12-03T14:30:49.735Z,12.17
2017-12-03T14:33:18.023Z,22.87
2017-12-03T14:35:46.288Z,13.30
2017-12-03T14:38:14.574Z,14.87
2017-12-03T14:40:42.843Z,14.00
2017-12-03T14:43:11.138Z,20.43
2017-12-03T14:45:38.652Z,13.20
2017-12-03T14:48:06.174Z,13.70
2017-12-03T14:50:33.679Z,13.07
2017-12-03T14:53:01.208Z,12.77
2017-12-03T14:55:28.714Z,13.30
2017-12-03T14:57:57.006Z,15.33
2017-12-03T15:00:24.511Z,18.80
2017-12-03T15:02:52.019Z,11.87
2017-12-03T15:05:19.539Z,13.27
2017-12-03T15:07:47.043Z,12.47
2017-12-03T15:10:14.566Z,11.40
2017-12-03T15:12:42.835Z,13.00
2017-12-03T15:15:10.351Z,12.50
2017-12-03T15:17:37.871Z,11.60
2017-12-03T15:20:06.154Z,11.60
2017-12-03T15:22:33.658Z,12.70
2017-12-03T15:25:01.178Z,12.63
2017-12-03T15:27:28.678Z,13.00
2017-12-03T15:29:56.190Z,12.80
2017-12-03T15:32:23.686Z,11.80
2017-12-03T15:34:51.206Z,11.80
2017-12-03T15:37:18.711Z,13.40
2017-12-03T15:39:46.234Z,13.50
2017-12-03T15:42:13.740Z,11.63
2017-12-03T15:44:41.263Z,12.63
2017-12-03T15:47:08.796Z,11.20
2017-12-03T15:49:36.319Z,10.20
2017-12-03T15:52:03.823Z,12.00
2017-12-03T15:54:31.347Z,10.97
2017-12-03T15:56:59.614Z,11.73
2017-12-03T15:59:27.146Z,11.53
2017-12-03T16:01:54.647Z,11.63
2017-12-03T16:04:22.922Z,11.93
2017-12-03T16:06:51.211Z,11.63
2017-12-03T16:09:18.719Z,11.07
2017-12-03T16:11:46.243Z,10.20
2017-12-03T16:14:13.746Z,11.20
2017-12-03T16:16:41.723Z,12.20
2017-12-03T16:19:09.228Z,11.60
2017-12-03T16:21:36.751Z,11.93
2017-12-03T16:24:05.023Z,12.47
2017-12-03T16:26:33.310Z,11.30
2017-12-03T16:29:01.583Z,14.17
2017-12-03T16:31:29.875Z,13.80
2017-12-03T16:33:57.383Z,11.40
2017-12-03T16:36:25.140Z,11.83
2017-12-03T16:38:52.660Z,12.60
2017-12-03T16:41:20.189Z,12.13
2017-12-03T16:43:48.466Z,11.40
2017-12-03T16:46:15.986Z,12.97
2017-12-03T16:48:43.491Z,13.27
2017-12-03T16:51:11.779Z,12.57
2017-12-03T16:53:39.286Z,11.63
2017-12-03T16:56:06.802Z,13.10
2017-12-03T16:58:34.307Z,12.83
2017-12-03T17:01:01.835Z,14.90
2017-12-03T17:03:29.333Z,15.00
2017-12-03T17:05:56.845Z,12.77
2017-12-03T17:08:24.364Z,12.27
2017-12-03T17:10:51.867Z,13.40
2017-12-03T17:13:19.385Z,12.83
2017-12-03T17:15:47.668Z,14.20
2017-12-03T17:18:15.963Z,22.20
2017-12-03T17:20:43.471Z,16.70
2017-12-03T17:23:10.996Z,14.73
2017-12-03T17:25:38.511Z,14.03
2017-12-03T17:28:06.794Z,15.80
2017-12-03T17:30:35.075Z,14.40
2017-12-03T17:33:02.619Z,14.97
2017-12-03T17:35:30.894Z,15.10
2017-12-03T17:37:59.187Z,15.20
2017-12-03T17:40:27.463Z,17.40
2017-12-03T17:42:55.757Z,13.50
2017-12-03T17:45:23.264Z,15.07
2017-12-03T17:47:50.786Z,17.30
2017-12-03T17:50:18.294Z,15.97
2017-12-03T17:52:45.814Z,15.97
2017-12-03T17:55:13.318Z,15.97
2017-12-03T17:57:41.630Z,16.30
2017-12-03T18:00:09.130Z,20.90
2017-12-03T18:02:36.634Z,19.50
2017-12-03T18:05:04.163Z,26.33
2017-12-03T18:07:32.430Z,24.27
2017-12-03T18:09:59.947Z,18.63
2017-12-03T18:12:27.446Z,19.50
2017-12-03T18:14:54.968Z,23.23
2017-12-03T18:17:22.487Z,19.50
2017-12-03T18:19:50.010Z,17.90
2017-12-03T18:22:17.510Z,17.43
2017-12-03T18:24:45.076Z,18.30
2017-12-03T18:27:12.630Z,18.03
2017-12-03T18:29:40.151Z,18.73
2017-12-03T18:32:09.166Z,20.93
2017-12-03T18:34:37.568Z,18.33
2017-12-03T18:37:05.076Z,19.67
2017-12-03T18:39:32.645Z,20.00
2017-12-03T18:42:00.147Z,22.17
2017-12-03T18:44:27.663Z,21.80
2017-12-03T18:46:55.165Z,21.50
2017-12-03T18:49:22.685Z,20.23
2017-12-03T18:51:50.955Z,19.33
2017-12-03T18:54:18.474Z,20.30
2017-12-03T18:56:45.982Z,20.77
2017-12-03T18:59:14.287Z,20.73
2017-12-03T19:01:41.791Z,20.90
2017-12-03T19:04:09.295Z,21.30
2017-12-03T19:06:36.819Z,20.97
2017-12-03T19:09:04.322Z,23.77
2017-12-03T19:11:31.871Z,22.00
2017-12-03T19:13:59.379Z,20.00
2017-12-03T19:16:26.898Z,18.47
2017-12-03T19:18:54.399Z,26.87
2017-12-03T19:21:21.924Z,22.40
2017-12-03T19:23:49.428Z,24.30
2017-12-03T19:26:16.953Z,28.50
2017-12-03T19:28:44.460Z,26.37
2017-12-03T19:31:12.763Z,25.70
2017-12-03T19:33:40.278Z,25.27
2017-12-03T19:36:08.571Z,23.33
2017-12-03T19:38:36.843Z,28.23
2017-12-03T19:41:05.173Z,47.13
2017-12-03T19:43:32.683Z,66.70
2017-12-03T19:46:00.976Z,55.60
2017-12-03T19:48:28.487Z,37.60
2017-12-03T19:50:56.008Z,36.80
2017-12-03T19:53:23.511Z,36.13
2017-12-03T19:55:51.034Z,32.53
2017-12-03T19:58:18.584Z,52.20
2017-12-03T20:00:46.132Z,35.40
2017-12-03T20:03:13.705Z,26.83
2017-12-03T20:05:41.211Z,27.60
2017-12-03T20:08:08.732Z,22.93
2017-12-03T20:10:36.239Z,23.27
2017-12-03T20:13:04.527Z,22.93
2017-12-03T20:15:32.027Z,23.37
2017-12-03T20:17:59.653Z,23.30
2017-12-03T20:20:27.154Z,24.60
2017-12-03T20:22:54.677Z,21.57
2017-12-03T20:25:22.182Z,25.87
2017-12-03T20:27:49.703Z,21.87
2017-12-03T20:30:17.205Z,23.33
2017-12-03T20:32:44.733Z,24.17
2017-12-03T20:35:13.011Z,25.10
2017-12-03T20:37:40.533Z,25.10
2017-12-03T20:40:08.043Z,22.67
2017-12-03T20:42:35.626Z,21.23
2017-12-03T20:45:03.989Z,25.80
2017-12-03T20:47:31.616Z,24.57
2017-12-03T20:49:59.142Z,26.03
2017-12-03T20:52:26.714Z,22.40
2017-12-03T20:54:54.372Z,22.50
2017-12-03T20:57:21.911Z,29.97
2017-12-03T20:59:50.217Z,25.17
2017-12-03T21:02:17.775Z,22.00
2017-12-03T21:04:45.351Z,23.10
2017-12-03T21:07:12.855Z,27.67
2017-12-03T21:09:41.142Z,20.70
2017-12-03T21:12:09.406Z,29.70
2017-12-03T21:14:37.690Z,20.00
2017-12-03T21:17:05.963Z,20.40
2017-12-03T21:19:34.271Z,18.10
2017-12-03T21:22:01.772Z,23.70
2017-12-03T21:24:29.291Z,19.60
2017-12-03T21:26:56.802Z,18.23
2017-12-03T21:29:25.093Z,17.80
2017-12-03T21:31:53.375Z,20.70
2017-12-03T21:34:20.899Z,16.20
2017-12-03T21:36:48.412Z,18.23
2017-12-03T21:39:15.935Z,16.97
2017-12-03T21:41:44.211Z,15.67
2017-12-03T21:44:12.498Z,15.93
2017-12-03T21:46:40.762Z,16.60
2017-12-03T21:49:09.052Z,14.70
2017-12-03T21:51:37.322Z,14.17
2017-12-03T21:54:05.607Z,12.70
2017-12-03T21:56:33.874Z,12.70
2017-12-03T21:59:02.163Z,12.53
2017-12-03T22:01:29.671Z,12.70
2017-12-03T22:03:57.206Z,13.13
2017-12-03T22:06:24.710Z,12.90
2017-12-03T22:08:52.212Z,11.97
2017-12-03T22:11:19.737Z,11.37
2017-12-03T22:13:48.015Z,11.60
2017-12-03T22:16:16.303Z,10.53
2017-12-03T22:18:44.570Z,10.10
2017-12-03T22:21:12.855Z,13.03
2017-12-03T22:23:41.127Z,12.67
2017-12-03T22:26:09.407Z,12.50
2017-12-03T22:28:37.675Z,11.80
2017-12-03T22:31:05.959Z,10.60
2017-12-03T22:33:33.463Z,10.13
2017-12-03T22:36:00.979Z,9.43
2017-12-03T22:38:28.474Z,9.73
2017-12-03T22:40:55.999Z,10.70
2017-12-03T22:43:23.503Z,10.10
2017-12-03T22:45:51.018Z,9.73
2017-12-03T22:48:18.522Z,10.73
2017-12-03T22:50:46.043Z,9.20
2017-12-03T22:53:13.542Z,9.50
2017-12-03T22:55:41.058Z,9.97
2017-12-03T22:58:08.563Z,11.07
2017-12-03T23:00:36.082Z,10.97
2017-12-03T23:03:03.588Z,10.30
2017-12-03T23:05:31.091Z,11.30
2017-12-03T23:07:58.611Z,10.83
2017-12-03T23:10:26.886Z,10.03
2017-12-03T23:12:54.402Z,10.77
2017-12-03T23:15:21.898Z,10.00
2017-12-03T23:17:49.422Z,11.03
2017-12-03T23:20:16.930Z,10.47
2017-12-03T23:22:45.219Z,10.40
2017-12-03T23:25:12.711Z,9.60
2017-12-03T23:27:40.231Z,10.90
2017-12-03T23:30:07.738Z,9.83
2017-12-03T23:32:35.255Z,9.60
2017-12-03T23:35:02.757Z,9.40
2017-12-03T23:37:30.276Z,9.20
2017-12-03T23:39:57.783Z,9.53
2017-12-03T23:42:25.303Z,8.40
2017-12-03T23:44:52.793Z,9.40
2017-12-03T23:47:20.315Z,8.57
2017-12-03T23:49:47.810Z,8.83
2017-12-03T23:52:15.332Z,13.00
2017-12-03T23:54:42.842Z,9.37
2017-12-03T23:57:11.135Z,8.57
2017-12-03T23:59:39.399Z,9.70
